ANACAPA ISLAND CA US current weather conditions

sailwx.info

Wind from 303 at 17 knots gusting 23

Air temperature 23.3° C
Dewpoint 20.7° C

Last reported at 2014-Aug-30 05:23 UTC.
Time now 2014-Aug-30 06:33 UTC

Location: N 34°01' W 119°22'.
View on Google Maps.

See reports from other nearby stations

  
Tides and Currents Weather Stations Pressure Air Temp Water Temp Dewpoint Dewpoint Depression Visibility Wind Speed Wind Dir Waves Ship Positions
date/time (UTC)wind fromknots sea level pressurealtimeterstation pressurevisibilityair tempwater tempwave heightnotes
2014-Aug-30 05:23 303 17 gusting 23 23.3
2014-Aug-30 04:23 317 13 gusting 19 23.9
2014-Aug-30 03:23 308 14 gusting 18 23.9
2014-Aug-30 02:23 287 10 gusting 27 24.4
2014-Aug-30 01:23 299 22 gusting 32 22.2
2014-Aug-30 00:23 302 21 gusting 29 23.3
2014-Aug-29 23:23 300 20 gusting 28 23.3
2014-Aug-29 22:23 295 19 gusting 25 24.4
2014-Aug-29 21:23 293 17 gusting 25 23.9
2014-Aug-29 20:23 290 13 gusting 17 23.9
2014-Aug-29 19:23 301 13 gusting 16 23.9
2014-Aug-29 18:23 309 10 gusting 12 24.4
2014-Aug-29 17:23 309 8 gusting 10 24.4
2014-Aug-29 16:23 325 6 gusting 8 25.0
2014-Aug-29 15:23 281 6 gusting 12 23.3
2014-Aug-29 14:23 267 4 gusting 10 23.3
2014-Aug-29 13:23 274 6 gusting 12 22.8
2014-Aug-29 12:23 111 1 gusting 9 23.3
2014-Aug-29 11:23 285 3 gusting 19 22.2
2014-Aug-29 10:23 313 17 gusting 23 21.1
2014-Aug-29 09:23 322 21 gusting 25 21.7
2014-Aug-29 08:23 332 20 gusting 26 22.2
2014-Aug-29 07:23 311 21 gusting 26 22.2
2014-Aug-29 06:23 311 19 gusting 26 21.7
2014-Aug-29 05:23 313 19 gusting 24 22.8
2014-Aug-29 04:23 321 19 gusting 25 23.3
2014-Aug-29 03:23 359 8 gusting 11 23.3
2014-Aug-29 02:23 331 0 gusting 9 25.6
2014-Aug-29 01:23 319 5 gusting 14 23.9
2014-Aug-29 00:23 300 11 gusting 23 24.4
2014-Aug-28 23:23 293 15 gusting 28 24.4
2014-Aug-28 22:23 311 19 gusting 23 22.8
2014-Aug-28 21:23 286 12 gusting 28 25.0
2014-Aug-28 20:23 294 19 gusting 27 24.4
2014-Aug-28 19:23 297 12 gusting 16 25.6
2014-Aug-28 18:23 305 16 gusting 19 24.4
2014-Aug-28 17:23 307 17 gusting 20 23.9
2014-Aug-28 16:23 313 15 gusting 22 22.8
2014-Aug-28 15:23 307 16 gusting 20 23.3
2014-Aug-28 14:23 306 16 gusting 20 23.9
2014-Aug-28 13:23 299 13 gusting 17 23.3
2014-Aug-28 12:23 311 13 gusting 16 22.8
2014-Aug-28 11:23 310 12 gusting 13 23.3
2014-Aug-28 10:23 314 11 gusting 17 23.9
2014-Aug-28 09:23 318 13 gusting 17 24.4
2014-Aug-28 08:23 335 14 gusting 21 23.9
2014-Aug-28 07:23 329 18 gusting 22 23.3
2014-Aug-28 06:23 338 12 gusting 15 24.4